createdAt,value
2023-05-19T00:01:43.871Z,4.63
2023-05-19T00:04:30.741Z,5.47
2023-05-19T00:07:36.699Z,5.67
2023-05-19T00:10:25.290Z,4.85
2023-05-19T00:16:23.241Z,4.50
2023-05-19T00:19:10.772Z,4.38
2023-05-19T00:21:56.691Z,4.70
2023-05-19T00:24:42.853Z,6.30
2023-05-19T00:27:36.819Z,7.90
2023-05-19T00:30:29.617Z,7.55
2023-05-19T00:33:22.287Z,7.45
2023-05-19T00:36:15.754Z,9.23
2023-05-19T00:39:08.486Z,7.70
2023-05-19T00:42:02.668Z,7.65
2023-05-19T00:44:56.777Z,6.93
2023-05-19T00:51:04.472Z,5.88
2023-05-19T00:57:14.735Z,5.55
2023-05-19T01:03:23.936Z,5.72
2023-05-19T01:06:19.088Z,5.75
2023-05-19T01:09:17.359Z,4.53
2023-05-19T01:12:10.525Z,4.85
2023-05-19T01:15:05.291Z,6.20
2023-05-19T01:18:03.418Z,5.40
2023-05-19T01:24:18.179Z,5.97
2023-05-19T01:30:31.971Z,6.22
2023-05-19T01:33:25.410Z,6.07
2023-05-19T01:36:27.198Z,6.05
2023-05-19T01:39:20.823Z,6.00
2023-05-19T01:42:14.319Z,6.82
2023-05-19T01:45:10.273Z,7.18
2023-05-19T01:48:06.371Z,7.22
2023-05-19T01:51:00.539Z,7.68
2023-05-19T01:53:54.106Z,6.35
2023-05-19T01:56:53.869Z,6.97
2023-05-19T02:03:18.093Z,7.40
2023-05-19T02:09:26.621Z,9.13
2023-05-19T02:12:26.788Z,8.02
2023-05-19T02:15:17.424Z,7.90
2023-05-19T02:18:12.760Z,8.43
2023-05-19T02:21:05.862Z,6.90
2023-05-19T02:23:58.677Z,8.75
2023-05-19T02:26:52.271Z,8.18
2023-05-19T02:29:44.364Z,8.30
2023-05-19T02:32:37.742Z,7.65
2023-05-19T02:35:31.759Z,7.47
2023-05-19T02:38:24.599Z,6.43
2023-05-19T02:41:18.451Z,5.90
2023-05-19T02:44:11.572Z,5.45
2023-05-19T02:50:16.897Z,7.63
2023-05-19T02:53:10.989Z,7.30
2023-05-19T02:56:40.761Z,7.55
2023-05-19T02:59:33.628Z,6.70
2023-05-19T03:03:03.822Z,5.95
2023-05-19T03:05:56.576Z,5.22
2023-05-19T03:08:50.847Z,5.00
2023-05-19T03:12:20.770Z,6.65
2023-05-19T03:15:14.954Z,5.22
2023-05-19T03:21:19.850Z,6.60
2023-05-19T03:24:13.948Z,7.65
2023-05-19T03:27:06.202Z,8.18
2023-05-19T03:29:59.387Z,6.55
2023-05-19T03:32:53.170Z,6.63
2023-05-19T03:35:45.320Z,7.45
2023-05-19T03:38:38.401Z,6.75
2023-05-19T03:41:32.723Z,7.97
2023-05-19T03:44:26.871Z,8.52
2023-05-19T03:47:19.753Z,7.07
2023-05-19T03:53:49.239Z,7.53
2023-05-19T03:56:43.787Z,6.25
2023-05-19T03:59:37.144Z,7.00
2023-05-19T04:02:30.467Z,8.40
2023-05-19T04:05:36.710Z,8.40
2023-05-19T04:08:30.478Z,8.20
2023-05-19T04:14:28.720Z,7.43
2023-05-19T04:17:23.529Z,8.32
2023-05-19T04:20:16.462Z,8.10
2023-05-19T04:23:09.492Z,8.43
2023-05-19T04:26:03.535Z,8.45
2023-05-19T04:28:57.752Z,9.00
2023-05-19T04:32:18.198Z,9.70
2023-05-19T04:35:13.575Z,9.05
2023-05-19T04:38:06.677Z,9.60
2023-05-19T04:44:18.008Z,10.32
2023-05-19T04:47:13.250Z,11.07
2023-05-19T04:50:04.106Z,9.70
2023-05-19T04:52:56.468Z,9.25
2023-05-19T04:55:51.503Z,8.93
2023-05-19T04:58:44.681Z,8.75
2023-05-19T05:01:40.182Z,9.95
2023-05-19T05:04:34.502Z,8.73
2023-05-19T05:07:31.595Z,9.15
2023-05-19T05:10:25.359Z,11.25
2023-05-19T05:13:19.822Z,10.18
2023-05-19T05:19:19.834Z,7.43
2023-05-19T05:22:14.162Z,6.55
2023-05-19T05:25:09.215Z,5.50
2023-05-19T05:28:39.873Z,6.25
2023-05-19T05:31:32.524Z,5.53
2023-05-19T05:34:25.963Z,4.80
2023-05-19T05:40:28.176Z,4.68
2023-05-19T05:43:21.242Z,5.22
2023-05-19T05:46:23.446Z,5.07
2023-05-19T05:49:16.879Z,4.53
2023-05-19T05:52:12.318Z,4.17
2023-05-19T05:55:12.180Z,3.83
2023-05-19T05:58:10.964Z,3.70
2023-05-19T06:01:04.640Z,3.47
2023-05-19T06:03:57.319Z,4.13
2023-05-19T06:06:52.563Z,3.45
2023-05-19T06:09:48.241Z,3.67
2023-05-19T06:12:43.108Z,3.25
2023-05-19T06:18:50.894Z,3.50
2023-05-19T06:21:45.169Z,4.85
2023-05-19T06:24:39.607Z,3.27
2023-05-19T06:27:34.890Z,3.40
2023-05-19T06:30:28.271Z,3.10
2023-05-19T06:33:40.757Z,3.20
2023-05-19T06:36:35.156Z,3.42
2023-05-19T06:39:28.755Z,3.10
2023-05-19T06:42:22.414Z,3.50
2023-05-19T06:45:22.451Z,1.95
2023-05-19T06:48:42.996Z,2.57
2023-05-19T06:51:35.815Z,2.92
2023-05-19T06:54:56.871Z,2.85
2023-05-19T06:57:49.450Z,2.63
2023-05-19T07:00:58.783Z,2.38
2023-05-19T07:03:58.116Z,3.63
2023-05-19T07:10:12.316Z,2.40
2023-05-19T07:16:51.564Z,2.50
2023-05-19T07:19:46.032Z,2.20
2023-05-19T07:22:39.630Z,2.22
2023-05-19T07:25:33.139Z,2.80
2023-05-19T07:28:25.778Z,2.83
2023-05-19T07:31:18.574Z,2.90
2023-05-19T07:34:11.607Z,2.50
2023-05-19T07:37:05.691Z,2.78
2023-05-19T07:39:52.021Z,2.95
2023-05-19T07:42:44.628Z,3.60
2023-05-19T07:45:37.727Z,3.08
2023-05-19T07:48:30.818Z,2.70
2023-05-19T07:51:23.747Z,2.40
2023-05-19T07:54:22.253Z,2.65
2023-05-19T07:57:15.069Z,3.03
2023-05-19T08:00:11.502Z,2.72
2023-05-19T08:03:07.811Z,2.53
2023-05-19T08:06:00.761Z,2.40
2023-05-19T08:08:54.164Z,2.92
2023-05-19T08:11:47.798Z,2.53
2023-05-19T08:18:01.651Z,2.78
2023-05-19T08:24:42.468Z,2.40
2023-05-19T08:27:36.634Z,2.25
2023-05-19T08:33:58.587Z,2.33
2023-05-19T08:36:51.739Z,2.00
2023-05-19T08:39:44.635Z,2.08
2023-05-19T08:42:33.842Z,1.77
2023-05-19T08:45:28.039Z,1.90
2023-05-19T08:48:20.862Z,2.65
2023-05-19T08:51:19.317Z,1.70
2023-05-19T08:54:15.602Z,2.40
2023-05-19T08:57:09.905Z,2.30
2023-05-19T09:00:08.046Z,2.23
2023-05-19T09:09:10.988Z,2.50
2023-05-19T09:12:03.982Z,1.88
2023-05-19T09:15:02.298Z,1.77
2023-05-19T09:18:07.954Z,1.50
2023-05-19T09:21:02.616Z,1.92
2023-05-19T09:23:55.814Z,1.30
2023-05-19T09:26:48.683Z,1.42
2023-05-19T09:29:41.403Z,2.15
2023-05-19T09:32:36.169Z,2.08
2023-05-19T09:35:30.561Z,1.08
2023-05-19T09:38:25.130Z,1.20
2023-05-19T09:41:18.344Z,1.17
2023-05-19T09:44:13.962Z,1.35
2023-05-19T09:47:07.042Z,1.33
2023-05-19T09:49:59.705Z,0.90
2023-05-19T09:52:54.051Z,1.30
2023-05-19T09:55:46.571Z,1.50
2023-05-19T09:58:42.728Z,1.70
2023-05-19T10:01:36.311Z,1.27
2023-05-19T10:04:32.840Z,1.27
2023-05-19T10:07:25.599Z,2.05
2023-05-19T10:10:20.926Z,1.55
2023-05-19T10:13:13.926Z,2.08
2023-05-19T10:16:06.969Z,1.88
2023-05-19T10:19:00.775Z,1.70
2023-05-19T10:21:54.305Z,1.40
2023-05-19T10:24:47.015Z,1.35
2023-05-19T10:30:38.999Z,1.30
2023-05-19T10:33:32.945Z,1.40
2023-05-19T10:36:33.496Z,1.87
2023-05-19T10:42:39.160Z,1.38
2023-05-19T10:48:47.050Z,1.40
2023-05-19T10:51:34.020Z,1.50
2023-05-19T10:54:40.689Z,1.38
2023-05-19T10:57:28.436Z,1.67
2023-05-19T11:00:28.470Z,1.35
2023-05-19T11:03:16.121Z,1.55
2023-05-19T11:06:19.364Z,1.17
2023-05-19T11:09:13.946Z,1.10
2023-05-19T11:12:07.394Z,1.20
2023-05-19T11:18:28.297Z,1.88
2023-05-19T11:21:22.342Z,1.15
2023-05-19T11:24:34.206Z,1.50
2023-05-19T11:27:28.721Z,1.13
2023-05-19T11:30:21.681Z,1.83
2023-05-19T11:33:14.901Z,1.13
2023-05-19T11:36:07.795Z,1.65
2023-05-19T11:39:02.559Z,1.42
2023-05-19T11:42:20.953Z,1.40
2023-05-19T11:45:13.750Z,1.40
2023-05-19T11:48:43.919Z,1.60
2023-05-19T11:51:39.510Z,1.20
2023-05-19T11:54:36.600Z,1.45
2023-05-19T11:57:29.835Z,1.50
2023-05-19T12:00:23.523Z,1.10
2023-05-19T12:03:17.259Z,1.38
2023-05-19T12:06:11.157Z,1.33
2023-05-19T12:09:05.429Z,1.50
2023-05-19T12:11:59.018Z,1.35
2023-05-19T12:14:52.675Z,1.80
2023-05-19T12:17:51.199Z,2.15
2023-05-19T12:20:43.326Z,1.70
2023-05-19T12:23:35.690Z,1.48
2023-05-19T12:26:28.990Z,2.20
2023-05-19T12:29:22.953Z,1.67
2023-05-19T12:32:16.335Z,1.83
2023-05-19T12:38:21.473Z,2.20
2023-05-19T12:44:24.863Z,1.67
2023-05-19T12:47:19.664Z,1.85
2023-05-19T12:50:12.625Z,1.63
2023-05-19T12:53:09.918Z,1.55
2023-05-19T12:56:27.932Z,1.67
2023-05-19T12:59:37.279Z,1.55
2023-05-19T13:02:30.819Z,1.40
2023-05-19T13:05:24.563Z,1.92
2023-05-19T13:08:19.014Z,1.55
2023-05-19T13:11:11.690Z,1.65
2023-05-19T13:14:04.404Z,1.70
2023-05-19T13:20:11.940Z,2.20
2023-05-19T13:23:05.673Z,1.55
2023-05-19T13:25:59.281Z,1.23
2023-05-19T13:32:12.404Z,1.48
2023-05-19T13:38:31.138Z,1.27
2023-05-19T13:41:24.748Z,1.40
2023-05-19T13:44:17.630Z,1.25
2023-05-19T13:47:10.783Z,1.20
2023-05-19T13:50:04.298Z,1.30
2023-05-19T13:52:56.966Z,1.40
2023-05-19T13:55:52.864Z,1.73
2023-05-19T13:58:45.707Z,1.10
2023-05-19T14:01:38.439Z,1.55
2023-05-19T14:04:31.965Z,1.33
2023-05-19T14:07:25.347Z,1.98
2023-05-19T14:13:31.560Z,1.38
2023-05-19T14:16:26.299Z,1.50
2023-05-19T14:19:18.854Z,1.38
2023-05-19T14:22:13.230Z,1.60
2023-05-19T14:25:06.310Z,1.27
2023-05-19T14:27:58.888Z,1.55
2023-05-19T14:30:54.279Z,1.42
2023-05-19T14:33:46.545Z,1.00
2023-05-19T14:36:39.292Z,1.40
2023-05-19T14:39:31.934Z,1.27
2023-05-19T14:42:24.443Z,1.23
2023-05-19T14:45:16.488Z,1.38
2023-05-19T14:51:23.271Z,1.20
2023-05-19T14:54:15.933Z,2.13
2023-05-19T14:57:08.690Z,1.50
2023-05-19T15:00:01.786Z,1.23
2023-05-19T15:02:54.329Z,1.40
2023-05-19T15:05:46.887Z,1.52
2023-05-19T15:08:41.430Z,1.02
2023-05-19T15:11:33.502Z,1.55
2023-05-19T15:15:03.895Z,1.15
2023-05-19T15:17:56.516Z,1.33
2023-05-19T15:24:20.103Z,1.30
2023-05-19T15:27:12.811Z,1.05
2023-05-19T15:30:06.412Z,1.67
2023-05-19T15:32:58.701Z,1.90
2023-05-19T15:35:55.319Z,1.88
2023-05-19T15:38:47.835Z,1.58
2023-05-19T15:41:42.192Z,1.10
2023-05-19T15:44:36.354Z,1.45
2023-05-19T15:47:28.516Z,1.30
2023-05-19T15:50:21.772Z,1.60
2023-05-19T15:53:51.900Z,1.50
2023-05-19T15:56:45.980Z,1.08
2023-05-19T15:59:38.860Z,1.13
2023-05-19T16:02:31.714Z,1.10
2023-05-19T16:05:24.925Z,1.50
2023-05-19T16:11:29.994Z,1.10
2023-05-19T16:14:24.505Z,1.15
2023-05-19T16:20:29.721Z,1.50
2023-05-19T16:23:24.508Z,1.30
2023-05-19T16:29:45.658Z,1.27
2023-05-19T16:32:38.851Z,2.03
2023-05-19T16:35:32.074Z,1.23
2023-05-19T16:38:24.616Z,1.00
2023-05-19T16:41:17.556Z,1.67
2023-05-19T16:47:48.161Z,0.98
2023-05-19T16:51:17.901Z,1.77
2023-05-19T16:54:10.817Z,1.70
2023-05-19T16:57:04.559Z,1.48
2023-05-19T17:03:07.375Z,1.30
2023-05-19T17:06:00.778Z,1.05
2023-05-19T17:09:02.925Z,1.05
2023-05-19T17:11:56.416Z,1.48
2023-05-19T17:14:50.262Z,1.20
2023-05-19T17:17:42.836Z,1.70
2023-05-19T17:20:36.789Z,1.35
2023-05-19T17:23:29.455Z,1.83
2023-05-19T17:29:34.416Z,0.90
2023-05-19T17:35:32.035Z,1.92
2023-05-19T17:38:26.092Z,1.15
2023-05-19T17:41:18.646Z,1.40
2023-05-19T17:44:36.707Z,1.37
2023-05-19T17:47:29.829Z,1.70
2023-05-19T17:50:37.989Z,2.20
2023-05-19T17:53:32.519Z,2.00
2023-05-19T17:56:26.497Z,1.55
2023-05-19T17:59:19.166Z,2.08
2023-05-19T18:02:12.875Z,1.55
2023-05-19T18:05:07.072Z,1.75
2023-05-19T18:08:03.404Z,1.83
2023-05-19T18:10:58.256Z,1.48
2023-05-19T18:13:50.564Z,1.40
2023-05-19T18:16:44.056Z,1.58
2023-05-19T18:20:08.550Z,1.45
2023-05-19T18:23:02.572Z,1.50
2023-05-19T18:29:11.125Z,1.20
2023-05-19T18:35:17.129Z,1.33
2023-05-19T18:38:09.641Z,1.65
2023-05-19T18:41:09.300Z,1.67
2023-05-19T18:44:01.531Z,1.50
2023-05-19T18:46:54.998Z,2.20
2023-05-19T18:49:47.956Z,1.83
2023-05-19T18:52:40.816Z,1.60
2023-05-19T18:55:33.574Z,1.80
2023-05-19T19:01:35.101Z,1.80
2023-05-19T19:04:29.338Z,2.33
2023-05-19T19:10:38.928Z,1.95
2023-05-19T19:13:31.604Z,1.60
2023-05-19T19:16:24.795Z,2.13
2023-05-19T19:19:54.997Z,1.70
2023-05-19T19:22:48.947Z,2.40
2023-05-19T19:26:18.930Z,1.80
2023-05-19T19:29:11.896Z,1.55
2023-05-19T19:32:05.371Z,1.50
2023-05-19T19:34:57.878Z,1.70
2023-05-19T19:37:52.532Z,1.48
2023-05-19T19:40:44.421Z,1.63
2023-05-19T19:43:36.554Z,1.52
2023-05-19T19:46:29.766Z,1.73
2023-05-19T19:49:23.016Z,1.70
2023-05-19T19:55:23.939Z,1.98
2023-05-19T19:58:16.878Z,2.28
2023-05-19T20:01:09.918Z,1.95
2023-05-19T20:04:39.959Z,2.15
2023-05-19T20:07:33.041Z,1.83
2023-05-19T20:10:27.269Z,2.08
2023-05-19T20:16:40.284Z,2.00
2023-05-19T20:19:32.888Z,1.98
2023-05-19T20:22:25.465Z,1.67
2023-05-19T20:25:17.618Z,1.67
2023-05-19T20:28:12.102Z,1.98
2023-05-19T20:34:37.537Z,2.22
2023-05-19T20:37:54.710Z,2.20
2023-05-19T20:40:41.863Z,2.03
2023-05-19T20:47:22.114Z,2.17
2023-05-19T20:50:14.922Z,2.40
2023-05-19T20:53:07.919Z,2.22
2023-05-19T20:56:00.601Z,2.97
2023-05-19T21:02:07.498Z,3.28
2023-05-19T21:05:02.370Z,2.30
2023-05-19T21:07:54.575Z,2.85
2023-05-19T21:10:47.707Z,2.58
2023-05-19T21:13:40.505Z,3.13
2023-05-19T21:16:29.805Z,2.67
2023-05-19T21:19:22.826Z,2.58
2023-05-19T21:22:17.445Z,2.55
2023-05-19T21:25:09.967Z,2.50
2023-05-19T21:28:03.215Z,2.35
2023-05-19T21:30:55.674Z,2.45
2023-05-19T21:33:48.585Z,2.42
2023-05-19T21:36:42.184Z,1.95
2023-05-19T21:39:35.484Z,2.35
2023-05-19T21:42:27.972Z,2.63
2023-05-19T21:45:20.672Z,2.60
2023-05-19T21:48:13.717Z,1.75
2023-05-19T21:51:00.437Z,2.50
2023-05-19T21:53:52.588Z,2.60
2023-05-19T21:56:47.245Z,3.00
2023-05-19T21:59:39.997Z,3.10
2023-05-19T22:02:33.005Z,3.10
2023-05-19T22:05:25.942Z,2.78
2023-05-19T22:08:19.587Z,3.03
2023-05-19T22:11:14.763Z,2.78
2023-05-19T22:14:08.834Z,3.07
2023-05-19T22:17:02.032Z,2.08
2023-05-19T22:20:26.739Z,2.50
2023-05-19T22:23:19.844Z,2.08
2023-05-19T22:26:12.991Z,2.83
2023-05-19T22:29:06.042Z,2.30
2023-05-19T22:32:00.408Z,2.15
2023-05-19T22:34:54.635Z,2.13
2023-05-19T22:37:47.876Z,1.95
2023-05-19T22:40:40.759Z,1.80
2023-05-19T22:43:33.544Z,2.10
2023-05-19T22:46:26.860Z,2.10
2023-05-19T22:49:24.328Z,2.20
2023-05-19T22:52:17.207Z,2.22
2023-05-19T22:55:10.483Z,2.28
2023-05-19T22:58:03.064Z,2.03
2023-05-19T23:04:09.201Z,2.38
2023-05-19T23:10:15.511Z,2.08
2023-05-19T23:16:20.086Z,2.03
2023-05-19T23:19:12.546Z,1.75
2023-05-19T23:22:06.213Z,1.90
2023-05-19T23:24:58.690Z,2.22
2023-05-19T23:27:53.381Z,1.90
2023-05-19T23:30:45.859Z,1.98
2023-05-19T23:33:38.444Z,2.08
2023-05-19T23:36:24.418Z,1.90
2023-05-19T23:39:10.501Z,2.25
2023-05-19T23:41:57.042Z,2.08
2023-05-19T23:44:44.537Z,2.03
2023-05-19T23:47:30.768Z,1.90
2023-05-19T23:50:16.881Z,2.33
2023-05-19T23:53:03.136Z,1.92
2023-05-19T23:55:49.230Z,2.10
2023-05-19T23:58:38.660Z,1.67
